Latest Weather Observations for Launceston Airport

IDT60801

Issued at 11:32 am EDT Tuesday 17 January 2017 (issued every 30 minutes, with the page automatically refreshed every 10 minutes)

About weather observations | Map of weather stations | Latest weather observations for TAS | Other Formats
Station Details ID: 091311 Name: LAUNCESTON AIRPORT Lat: -41.55 Lon: 147.21 Height: 166.9 m
Data from the previous 72 hours. | See also: Recent months at Launceston Airport
Date/Time
EDT
Temp
°C
App
Temp
°C
Dew
Point
°C
Rel
Hum
%
Delta-T
°C
Wind Press
QNH
hPa
Press
MSL
hPa
Rain since
9am
mm
Dir  Spd
km/h
Gust
km/h
Spd
kts
Gust
kts
17/11:30am 22.1 15.8 11.2 50 6.1 NNW 35 44 19 24 1005.2 1004.8 0.0
17/11:00am 21.7 16.9 11.7 53 5.6 NNW 28 35 15 19 1005.8 1005.3 0.0
17/10:30am 21.3 16.0 11.3 53 5.6 NNW 30 39 16 21 1006.1 1005.6 0.0
17/10:00am 20.0 14.8 11.5 58 4.7 NNW 30 39 16 21 1006.6 1006.1 0.0
17/09:30am 18.7 14.4 10.8 60 4.3 NNW 24 32 13 17 1006.6 1006.1 0.0
17/09:00am 17.7 13.6 11.5 67 3.4 NNW 24 30 13 16 1006.8 1006.4 0.0
17/08:30am 15.8 12.7 12.2 79 2.0 N 20 30 11 16 1007.4 1007.0 0.0
17/08:01am 14.5 11.5 12.4 87 1.2 NNW 20 26 11 14 1007.7 1007.3 0.0
17/08:00am 14.4 11.3 12.3 87 1.2 NNW 20 26 11 14 1007.7 1007.3 0.0
17/07:30am 14.2 11.1 12.2 88 1.1 NNW 20 28 11 15 1007.5 1007.1 0.0
17/07:00am 14.1 11.1 12.1 88 1.1 NNW 19 28 10 15 1007.3 1006.9 0.0
17/06:44am 13.9 10.7 11.9 88 1.1 NNW 20 28 11 15 1007.1 1006.7 0.0
17/06:30am 13.6 10.0 11.7 88 1.0 NNW 22 30 12 16 1007.0 1006.6 0.0
17/06:00am 13.4 10.0 11.3 87 1.1 NNW 20 28 11 15 1006.9 1006.5 0.0
17/05:43am 13.4 10.0 11.3 87 1.1 NNW 20 28 11 15 1006.7 1006.3 0.0
17/05:30am 13.4 9.1 10.9 85 1.3 NNW 24 32 13 17 1006.8 1006.4 0.0
17/05:00am 13.7 8.8 11.4 86 1.2 NNW 28 33 15 18 1006.9 1006.5 0.0
17/04:42am 13.4 8.8 11.1 86 1.2 NNW 26 35 14 19 1006.7 1006.3 0.0
17/04:30am 13.7 8.8 11.2 85 1.3 N 28 37 15 20 1006.6 1006.1 0.0
17/04:11am 13.7 8.8 11.4 86 1.2 NNW 28 39 15 21 1006.7 1006.3 0.0
17/04:00am 13.8 9.0 11.5 86 1.2 NNW 28 39 15 21 1006.7 1006.3 0.0
17/03:31am 13.4 8.9 11.3 87 1.1 NNW 26 35 14 19 1006.8 1006.4 0.0
17/03:30am 13.4 8.9 11.3 87 1.1 NNW 26 35 14 19 1006.7 1006.3 0.0
17/03:00am 13.5 7.8 11.2 86 1.2 NNW 32 41 17 22 1006.8 1006.4 0.0
17/02:35am 13.5 8.3 11.6 88 1.0 NNW 30 39 16 21 1007.0 1006.6 0.0
17/02:30am 13.4 7.8 11.5 88 1.0 NNW 32 41 17 22 1007.1 1006.7 0.0
17/02:00am 13.2 9.1 11.4 89 1.0 NNW 24 32 13 17 1007.4 1007.0 0.0
17/01:30am 13.2 9.1 11.4 89 1.0 NNW 24 30 13 16 1007.5 1007.1 0.0
17/01:00am 13.2 9.8 11.3 88 1.0 NNW 20 26 11 14 1008.0 1007.6 0.0
17/12:30am 13.4 9.7 11.5 88 1.0 N 22 28 12 15 1008.4 1008.0 0.0
17/12:08am 13.7 9.6 11.4 86 1.2 NNW 24 32 13 17 1008.8 1008.4 0.0
17/12:00am 13.7 10.4 11.6 87 1.1 NNW 20 32 11 17 1008.9 1008.5 0.0
 
Date/Time
EDT
Temp
°C
App
Temp
°C
Dew
Point
°C
Rel
Hum
%
Delta-T
°C
Wind Press
QNH
hPa
Press
MSL
hPa
Rain since
9am
mm
Dir  Spd
km/h
Gust
km/h
Spd
kts
Gust
kts
16/11:59pm 13.7 10.4 11.6 87 1.1 NNW 20 32 11 17 1008.9 1008.5 0.0
16/11:32pm 13.9 9.0 11.4 85 1.3 N 28 37 15 20 1009.1 1008.7 0.0
16/11:30pm 13.9 9.4 11.4 85 1.3 N 26 37 14 20 1009.1 1008.7 0.0
16/11:15pm 14.0 8.7 11.3 84 1.4 N 30 37 16 20 1009.1 1008.7 0.0
16/11:12pm 14.0 8.7 11.3 84 1.4 N 30 37 16 20 1009.1 1008.7 0.0
16/11:07pm 14.1 8.8 11.4 84 1.5 NNW 30 37 16 20 1009.2 1008.8 0.0
16/11:00pm 14.0 9.1 11.3 84 1.4 N 28 37 15 20 1009.3 1008.9 0.0
16/10:46pm 14.1 9.2 11.3 83 1.5 N 28 37 15 20 1009.2 1008.8 0.0
16/10:30pm 14.2 8.9 11.2 82 1.6 N 30 41 16 22 1009.4 1009.0 0.0
16/10:00pm 14.4 8.7 11.2 81 1.7 NNW 32 41 17 22 1009.2 1008.8 0.0
16/09:30pm 14.4 8.7 11.0 80 1.8 NNW 32 39 17 21 1009.2 1008.8 0.0
16/09:00pm 14.8 9.8 11.0 78 2.0 NNW 28 35 15 19 1009.1 1008.7 0.0
16/08:30pm 15.4 10.7 10.8 74 2.5 NNW 26 33 14 18 1008.6 1008.2 0.0
16/08:00pm 16.5 10.6 10.6 68 3.2 NNW 32 39 17 21 1008.6 1008.2 0.0
16/07:30pm 17.2 10.8 10.8 66 3.5 NNW 35 44 19 24 1008.7 1008.3 0.0
16/07:00pm 18.0 11.7 11.1 64 3.8 NNW 35 44 19 24 1008.6 1008.2 0.0
16/06:30pm 18.8 12.2 11.4 62 4.1 NNW 37 46 20 25 1008.6 1008.2 0.0
16/06:00pm 19.6 12.0 10.6 56 4.9 NNW 41 52 22 28 1008.5 1008.1 0.0
16/05:30pm 19.7 12.2 10.9 57 4.8 NNW 41 50 22 27 1008.8 1008.4 0.0
16/05:00pm 19.2 11.1 10.7 58 4.6 NNW 44 56 24 30 1009.0 1008.6 0.0
16/04:30pm 20.3 12.7 11.8 58 4.8 NNW 43 54 23 29 1009.3 1008.9 0.0
16/04:00pm 20.6 13.5 11.0 54 5.3 NNW 39 50 21 27 1009.5 1009.1 0.0
16/03:30pm 20.2 12.8 10.0 52 5.5 NNW 39 48 21 26 1009.6 1009.2 0.0
16/03:00pm 20.8 14.3 10.3 51 5.7 NNW 35 46 19 25 1009.8 1009.4 0.0
16/02:30pm 20.8 14.0 10.6 52 5.6 NNW 37 46 20 25 1009.8 1009.4 0.0
16/02:00pm 20.3 13.7 10.1 52 5.5 NNW 35 48 19 26 1010.2 1009.8 0.0
16/01:30pm 20.9 14.8 10.4 51 5.7 NNW 33 43 18 23 1010.5 1010.1 0.0
16/01:00pm 20.5 14.5 10.0 51 5.7 NNW 32 43 17 23 1010.9 1010.5 0.0
16/12:30pm 19.1 13.6 9.3 53 5.2 NNW 28 37 15 20 1011.2 1010.8 0.0
16/12:00pm 19.0 14.4 9.8 55 4.9 N 24 35 13 19 1011.5 1011.1 0.0
16/11:30am 18.5 13.2 9.8 57 4.6 N 28 35 15 19 1012.1 1011.7 0.0
16/11:00am 18.4 13.4 9.5 56 4.7 NNW 26 39 14 21 1012.4 1012.0 0.0
16/10:30am 17.0 11.5 9.2 60 4.1 NNW 28 39 15 21 1012.8 1012.4 0.0
16/10:00am 17.0 11.4 8.9 59 4.2 NNW 28 39 15 21 1012.8 1012.4 0.0
16/09:30am 15.7 9.7 8.7 63 3.6 NNW 30 37 16 20 1012.9 1012.5 0.0
16/09:00am 15.0 9.4 8.7 66 3.2 NNW 28 33 15 18 1012.9 1012.5 0.0
16/08:30am 13.8 8.8 8.2 69 2.8 NNW 24 32 13 17 1013.0 1012.6 0.0
16/08:00am 12.9 8.9 9.0 77 2.0 N 20 28 11 15 1013.0 1012.6 0.0
16/07:30am 11.5 7.9 8.4 81 1.5 N 17 24 9 13 1012.9 1012.5 0.0
16/07:00am 9.7 6.8 8.3 91 0.7 N 13 17 7 9 1012.7 1012.3 0.0
16/06:30am 7.7 4.5 6.8 94 0.4 NNW 13 17 7 9 1012.4 1012.0 0.0
16/06:00am 6.0 2.0 4.8 92 0.5 NNW 15 17 8 9 1012.2 1011.8 0.0
16/05:30am 5.9 2.5 4.2 89 0.7 N 11 13 6 7 1011.8 1011.5 0.0
16/05:00am 6.8 3.6 5.0 88 0.8 N 11 13 6 7 1011.8 1011.5 0.0
16/04:30am 7.6 4.1 5.6 87 0.9 N 13 17 7 9 1011.8 1011.5 0.0
16/04:00am 8.1 4.4 6.1 87 0.9 N 15 19 8 10 1011.6 1011.2 0.0
16/03:30am 7.7 3.5 5.5 86 1.0 NNW 17 19 9 10 1011.7 1011.4 0.0
16/03:00am 7.7 3.8 5.5 86 1.0 NNW 15 19 8 10 1011.7 1011.4 0.0
16/02:30am 7.9 4.3 5.2 83 1.2 NNW 13 17 7 9 1012.1 1011.7 0.0
16/02:00am 8.5 5.0 5.4 81 1.4 N 13 17 7 9 1012.3 1011.9 0.0
16/01:30am 10.2 6.2 6.5 78 1.7 N 17 20 9 11 1012.6 1012.2 0.0
16/01:00am 8.7 4.9 6.0 83 1.2 NNW 15 17 8 9 1012.9 1012.5 0.0
16/12:30am 9.3 5.8 5.5 77 1.7 NNW 13 15 7 8 1013.0 1012.6 0.0
16/12:00am 11.3 6.9 6.6 73 2.2 N 19 24 10 13 1013.0 1012.6 0.0
 
Date/Time
EDT
Temp
°C
App
Temp
°C
Dew
Point
°C
Rel
Hum
%
Delta-T
°C
Wind Press
QNH
hPa
Press
MSL
hPa
Rain since
9am
mm
Dir  Spd
km/h
Gust
km/h
Spd
kts
Gust
kts
15/11:30pm 12.1 7.7 7.2 72 2.4 N 20 24 11 13 1012.9 1012.5 0.0
15/11:00pm 12.4 8.1 7.1 70 2.6 NNW 19 28 10 15 1013.1 1012.7 0.0
15/10:30pm 12.6 8.9 7.9 73 2.3 NNW 17 22 9 12 1013.1 1012.7 0.0
15/10:00pm 12.2 8.7 7.1 71 2.5 NNW 15 17 8 9 1013.1 1012.7 0.0
15/09:30pm 13.1 10.1 7.5 69 2.8 NNW 13 17 7 9 1012.7 1012.3 0.0
15/09:00pm 14.9 11.2 7.9 63 3.5 N 17 24 9 13 1012.5 1012.1 0.0
15/08:30pm 16.5 12.3 8.2 58 4.2 N 20 26 11 14 1012.2 1011.8 0.0
15/08:00pm 17.5 12.1 8.1 54 4.8 NNW 26 35 14 19 1012.0 1011.6 0.0
15/07:30pm 18.6 12.6 8.6 52 5.2 NNW 30 35 16 19 1011.6 1011.2 0.0
15/07:00pm 19.7 13.7 8.7 49 5.8 NNW 30 37 16 20 1011.3 1010.9 0.0
15/06:30pm 20.7 14.7 8.7 46 6.4 NNW 30 37 16 20 1011.1 1010.7 0.0
15/06:00pm 20.7 14.8 9.0 47 6.2 NNW 30 39 16 21 1011.3 1010.9 0.0
15/05:30pm 20.9 14.9 8.5 45 6.6 NNW 30 37 16 20 1011.4 1011.0 0.0
15/05:00pm 21.5 15.8 8.4 43 6.9 NNW 28 35 15 19 1011.5 1011.1 0.0
15/04:30pm 21.6 16.3 8.5 43 7.0 NNW 26 37 14 20 1011.8 1011.5 0.0
15/04:00pm 21.9 16.8 9.1 44 6.9 N 26 37 14 20 1012.0 1011.6 0.0
15/03:30pm 22.1 17.6 8.6 42 7.2 NNW 22 30 12 16 1012.3 1011.9 0.0
15/03:00pm 21.4 16.9 6.9 39 7.5 NNW 20 32 11 17 1012.3 1011.9 0.0
15/02:30pm 21.4 16.9 8.7 44 6.8 N 22 32 12 17 1012.5 1012.1 0.0
15/02:00pm 20.2 15.2 6.5 41 6.9 NNW 22 33 12 18 1012.7 1012.3 0.0
15/01:30pm 19.9 15.0 7.0 43 6.6 NNW 22 33 12 18 1013.0 1012.6 0.0
15/01:00pm 19.1 15.0 6.2 43 6.5 NNW 17 28 9 15 1013.2 1012.8 0.0
15/12:30pm 18.5 13.8 5.0 41 6.6 N 19 32 10 17 1013.4 1013.0 0.0
15/12:00pm 17.8 13.2 5.4 44 6.1 NW 19 30 10 16 1013.6 1013.2 0.0
15/11:30am 17.1 13.8 6.6 50 5.2 NNW 13 24 7 13 1013.7 1013.3 0.0
15/11:00am 16.4 13.7 5.4 48 5.3 NNW 9 20 5 11 1013.7 1013.3 0.0
15/10:30am 15.6 11.7 5.5 51 4.9 NNW 15 24 8 13 1013.8 1013.4 0.0
15/10:00am 14.7 10.6 4.4 50 4.8 NNW 15 24 8 13 1013.9 1013.5 0.0
15/09:30am 14.1 10.5 5.2 55 4.2 NNE 13 20 7 11 1014.0 1013.6 0.0
15/09:00am 12.4 9.0 3.9 56 3.9 NNE 11 15 6 8 1013.8 1013.4 0.0
15/08:30am 12.1 8.8 4.6 60 3.4 N 11 15 6 8 1013.6 1013.2 0.0
15/08:00am 10.9 7.6 4.8 66 2.8 N 11 15 6 8 1013.4 1013.0 0.0
15/07:30am 9.6 6.7 4.6 71 2.2 N 9 11 5 6 1013.0 1012.6 0.0
15/07:00am 7.4 4.5 4.4 81 1.3 N 9 11 5 6 1012.8 1012.4 0.0
15/06:30am 5.5 2.2 2.2 79 1.3 N 9 11 5 6 1012.3 1011.9 0.0
15/06:00am 5.9 2.7 2.9 81 1.3 N 9 13 5 7 1012.0 1011.6 0.0
15/05:30am 6.7 3.5 2.8 76 1.6 N 9 13 5 7 1011.5 1011.1 0.0
15/05:00am 6.1 2.4 2.6 78 1.5 N 11 13 6 7 1011.0 1010.6 0.0
15/04:30am 5.5 1.5 2.7 82 1.2 N 13 17 7 9 1010.6 1010.2 0.0
15/04:00am 6.5 3.2 2.6 76 1.6 N 9 13 5 7 1010.4 1010.0 0.0
15/03:30am 6.9 3.6 2.2 72 1.9 NNW 9 13 5 7 1010.5 1010.1 0.0
15/03:00am 9.8 5.6 1.7 57 3.4 W 13 17 7 9 1010.0 1009.6 0.0
15/02:30am 9.0 5.5 1.4 59 3.2 NW 9 13 5 7 1010.0 1009.6 0.0
15/02:00am 9.8 6.5 2.2 59 3.2 W 9 15 5 8 1010.0 1009.6 0.0
15/01:30am 8.7 5.1 0.7 57 3.3 W 9 15 5 8 1009.7 1009.3 0.0
15/01:00am 10.3 5.3 1.2 53 3.8 WSW 17 20 9 11 1009.6 1009.2 0.0
15/12:30am 11.0 5.6 1.3 51 4.1 WNW 19 26 10 14 1009.5 1009.1 0.0
15/12:00am 11.2 6.2 1.2 50 4.2 WSW 17 30 9 16 1009.5 1009.1 0.0
 
Date/Time
EDT
Temp
°C
App
Temp
°C
Dew
Point
°C
Rel
Hum
%
Delta-T
°C
Wind Press
QNH
hPa
Press
MSL
hPa
Rain since
9am
mm
Dir  Spd
km/h
Gust
km/h
Spd
kts
Gust
kts
14/11:30pm 11.9 6.0 1.5 49 4.4 WSW 22 32 12 17 1008.9 1008.5 0.0
14/11:00pm 11.5 6.1 1.5 50 4.3 W 19 24 10 13 1008.3 1007.9 0.0
14/10:30pm 11.6 6.7 1.8 51 4.2 WSW 17 22 9 12 1008.2 1007.8 0.0
14/10:00pm 11.9 7.3 1.5 49 4.5 WSW 15 20 8 11 1007.8 1007.4 0.0
14/09:30pm 11.8 8.8 2.0 51 4.2 NE 7 11 4 6 1007.3 1006.9 0.0
14/09:00pm 12.9 9.1 1.9 47 4.8 SW 11 17 6 9 1006.4 1005.9 0.0
14/08:30pm 14.3 9.4 1.9 43 5.5 SW 17 30 9 16 1005.5 1005.1 0.0
14/08:00pm 15.2 9.0 2.1 41 5.9 SW 24 37 13 20 1004.8 1004.4 0.0
14/07:30pm 15.9 8.0 2.0 39 6.2 SW 33 44 18 24 1004.0 1003.6 0.0
14/07:00pm 16.8 8.7 1.3 35 6.9 SW 33 46 18 25 1003.1 1002.7 0.0
14/06:30pm 17.6 10.2 1.6 34 7.2 SW 30 44 16 24 1002.5 1002.1 0.0
14/06:00pm 18.4 11.1 2.7 35 7.3 SW 30 41 16 22 1001.6 1001.2 0.0
14/05:30pm 20.0 12.6 4.1 35 7.7 W 32 44 17 24 1000.6 1000.1 0.0
14/05:04pm 20.9 13.1 4.9 35 7.9 WNW 35 54 19 29 999.9 999.4 0.0
14/05:00pm 21.2 13.4 4.7 34 8.2 WNW 35 46 19 25 999.9 999.4 0.0
14/04:30pm 22.2 14.3 6.4 36 8.1 WNW 37 54 20 29 999.2 998.8 0.0
14/04:07pm 21.8 14.4 6.9 38 7.7 WNW 35 54 19 29 998.9 998.5 0.0
14/04:00pm 21.2 13.2 5.9 37 7.8 WNW 37 54 20 29 998.7 998.3 0.0
14/03:52pm 22.0 14.5 6.3 36 8.0 WNW 35 50 19 27 998.6 998.2 0.0
14/03:30pm 21.2 13.3 7.8 42 7.0 NW 39 57 21 31 998.3 997.9 0.0
14/03:00pm 21.5 13.6 7.7 41 7.3 NW 39 59 21 32 997.8 997.4 0.0
14/02:49pm 19.9 12.5 6.6 42 6.7 NW 35 56 19 30 997.6 997.2 0.0
14/02:30pm 20.9 13.0 7.9 43 6.8 WNW 39 54 21 29 997.1 996.7 0.0
14/02:02pm 21.3 13.6 7.2 40 7.3 WNW 37 56 20 30 996.8 996.4 0.0
14/02:00pm 20.8 12.6 6.4 39 7.4 WNW 39 56 21 30 996.8 996.4 0.0
14/01:30pm 21.3 13.2 7.2 40 7.3 WNW 39 59 21 32 996.5 996.1 0.0
14/01:00pm 20.2 12.0 6.5 41 7.0 WNW 39 59 21 32 996.0 995.5 0.0
14/12:59pm 20.4 12.6 6.7 41 7.0 WNW 37 59 20 32 996.0 995.5 0.0
14/12:30pm 20.0 11.4 6.4 41 6.9 WNW 41 54 22 29 995.5 995.0 0.0
14/12:28pm 19.9 11.4 7.0 43 6.6 WNW 41 52 22 28 995.4 994.9 0.0
14/12:00pm 19.6 10.5 6.7 43 6.6 WNW 44 67 24 36 995.0 994.5 0.0

Other Formats:

Comma delimited format used in spreadsheet applications
http://www.bom.gov.au/fwo/IDT60801/IDT60801.95966.axf

JavaScript Object Notation format (JSON) in row-major order
http://www.bom.gov.au/fwo/IDT60801/IDT60801.95966.json